createdAt,value
2022-12-14T00:00:35.379Z,8.57
2022-12-14T00:03:04.071Z,8.10
2022-12-14T00:05:34.659Z,8.43
2022-12-14T00:08:03.255Z,7.80
2022-12-14T00:10:32.644Z,7.30
2022-12-14T00:13:01.636Z,7.60
2022-12-14T00:15:30.469Z,6.83
2022-12-14T00:17:59.254Z,6.83
2022-12-14T00:20:28.628Z,6.63
2022-12-14T00:22:58.913Z,6.60
2022-12-14T00:25:27.687Z,6.63
2022-12-14T00:27:56.215Z,7.60
2022-12-14T00:30:24.756Z,8.97
2022-12-14T00:32:53.292Z,9.07
2022-12-14T00:35:21.793Z,8.07
2022-12-14T00:37:50.361Z,8.37
2022-12-14T00:40:20.305Z,7.93
2022-12-14T00:42:48.820Z,7.63
2022-12-14T00:45:17.675Z,7.03
2022-12-14T00:47:46.186Z,7.60
2022-12-14T00:50:14.705Z,7.13
2022-12-14T00:52:43.216Z,7.07
2022-12-14T00:55:11.935Z,7.23
2022-12-14T00:57:41.868Z,6.97
2022-12-14T01:00:11.715Z,7.13
2022-12-14T01:02:40.280Z,7.20
2022-12-14T01:05:09.552Z,6.83
2022-12-14T01:07:38.070Z,6.77
2022-12-14T01:10:07.257Z,7.63
2022-12-14T01:12:35.858Z,7.37
2022-12-14T01:15:06.675Z,8.17
2022-12-14T01:17:35.239Z,8.20
2022-12-14T01:20:04.450Z,8.27
2022-12-14T01:22:33.038Z,7.40
2022-12-14T01:25:01.518Z,8.10
2022-12-14T01:27:30.048Z,7.50
2022-12-14T01:29:58.542Z,6.70
2022-12-14T01:32:28.706Z,6.53
2022-12-14T01:34:57.184Z,6.43
2022-12-14T01:37:25.681Z,6.70
2022-12-14T01:39:54.221Z,6.13
2022-12-14T01:42:22.885Z,6.20
2022-12-14T01:44:54.642Z,6.17
2022-12-14T01:47:29.599Z,6.00
2022-12-14T01:50:03.018Z,6.30
2022-12-14T01:52:38.243Z,6.07
2022-12-14T01:55:09.276Z,6.17
2022-12-14T01:57:40.598Z,6.33
2022-12-14T02:00:13.185Z,6.23
2022-12-14T02:02:49.580Z,5.80
2022-12-14T02:05:18.609Z,6.57
2022-12-14T02:07:48.837Z,6.93
2022-12-14T02:10:18.287Z,7.03
2022-12-14T02:12:49.364Z,6.60
2022-12-14T02:15:18.242Z,6.23
2022-12-14T02:17:48.788Z,6.40
2022-12-14T02:20:18.450Z,7.00
2022-12-14T02:23:34.626Z,6.70
2022-12-14T02:26:44.606Z,6.27
2022-12-14T02:29:26.232Z,6.97
2022-12-14T02:32:02.147Z,7.03
2022-12-14T02:34:37.975Z,7.27
2022-12-14T02:37:11.143Z,7.13
2022-12-14T02:39:45.903Z,6.80
2022-12-14T02:42:15.671Z,6.60
2022-12-14T02:44:51.523Z,6.67
2022-12-14T02:47:25.725Z,6.67
2022-12-14T02:50:01.563Z,7.63
2022-12-14T02:52:40.134Z,7.00
2022-12-14T02:55:13.496Z,7.03
2022-12-14T02:57:46.326Z,7.03
2022-12-14T03:00:17.102Z,7.27
2022-12-14T03:02:46.236Z,7.30
2022-12-14T03:05:15.074Z,7.23
2022-12-14T03:07:48.854Z,6.63
2022-12-14T03:10:22.782Z,7.10
2022-12-14T03:12:57.462Z,6.90
2022-12-14T03:15:28.611Z,6.77
2022-12-14T03:18:00.990Z,6.50
2022-12-14T03:20:31.796Z,6.57
2022-12-14T03:23:04.737Z,7.53
2022-12-14T03:25:37.272Z,7.37
2022-12-14T03:28:08.040Z,7.33
2022-12-14T03:30:59.486Z,7.17
2022-12-14T03:33:29.904Z,6.83
2022-12-14T03:36:01.294Z,12.77
2022-12-14T03:38:34.560Z,11.30
2022-12-14T03:41:13.617Z,9.03
2022-12-14T03:43:51.213Z,7.87
2022-12-14T03:46:29.287Z,7.47
2022-12-14T03:49:01.714Z,7.80
2022-12-14T03:51:35.477Z,8.17
2022-12-14T03:54:07.977Z,7.20
2022-12-14T03:56:39.186Z,8.20
2022-12-14T03:59:11.525Z,11.23
2022-12-14T04:01:44.291Z,10.63
2022-12-14T04:04:16.137Z,8.93
2022-12-14T04:06:49.983Z,7.80
2022-12-14T04:09:27.061Z,7.60
2022-12-14T04:12:17.360Z,7.70
2022-12-14T04:15:05.884Z,7.23
2022-12-14T04:17:55.546Z,7.73
2022-12-14T04:20:27.918Z,7.83
2022-12-14T04:23:00.349Z,7.37
2022-12-14T04:25:49.111Z,7.80
2022-12-14T04:28:38.213Z,8.00
2022-12-14T04:31:10.362Z,8.37
2022-12-14T04:33:47.813Z,7.87
2022-12-14T04:36:18.699Z,8.50
2022-12-14T04:38:49.071Z,8.40
2022-12-14T04:41:21.811Z,7.80
2022-12-14T04:43:52.751Z,8.33
2022-12-14T04:46:24.227Z,7.70
2022-12-14T04:48:56.951Z,8.40
2022-12-14T04:51:27.898Z,7.67
2022-12-14T04:54:00.031Z,7.70
2022-12-14T04:56:32.857Z,6.93
2022-12-14T04:59:01.534Z,7.90
2022-12-14T05:01:39.747Z,8.00
2022-12-14T05:04:16.557Z,8.63
2022-12-14T05:06:51.586Z,9.00
2022-12-14T05:09:24.118Z,10.43
2022-12-14T05:11:55.343Z,10.53
2022-12-14T05:14:28.270Z,11.13
2022-12-14T05:16:57.230Z,8.47
2022-12-14T05:19:27.165Z,7.97
2022-12-14T05:21:56.218Z,7.50
2022-12-14T05:24:24.783Z,8.20
2022-12-14T05:26:53.314Z,8.03
2022-12-14T05:29:21.836Z,9.40
2022-12-14T05:31:51.278Z,8.60
2022-12-14T05:34:20.346Z,10.33
2022-12-14T05:36:50.303Z,12.20
2022-12-14T05:39:18.814Z,11.27
2022-12-14T05:41:47.311Z,9.33
2022-12-14T05:44:15.846Z,8.93
2022-12-14T05:46:44.386Z,7.97
2022-12-14T05:49:13.007Z,8.17
2022-12-14T05:51:42.386Z,8.00
2022-12-14T05:54:12.350Z,8.00
2022-12-14T05:56:40.902Z,9.00
2022-12-14T05:59:09.491Z,8.87
2022-12-14T06:01:38.099Z,8.23
2022-12-14T06:04:06.753Z,8.00
2022-12-14T06:06:35.545Z,7.93
2022-12-14T06:09:07.248Z,8.53
2022-12-14T06:11:39.175Z,8.67
2022-12-14T06:14:08.036Z,8.53
2022-12-14T06:16:37.178Z,7.90
2022-12-14T06:19:06.417Z,7.87
2022-12-14T06:21:38.143Z,8.83
2022-12-14T06:24:07.746Z,11.17
2022-12-14T06:26:40.857Z,14.93
2022-12-14T06:29:12.890Z,12.47
2022-12-14T06:31:41.518Z,10.00
2022-12-14T06:34:10.928Z,9.00
2022-12-14T06:36:41.192Z,8.50
2022-12-14T06:39:13.186Z,9.32
2022-12-14T06:41:43.248Z,8.90
2022-12-14T06:44:14.185Z,7.97
2022-12-14T06:46:43.570Z,8.00
2022-12-14T06:49:15.028Z,15.60
2022-12-14T06:51:43.836Z,14.83
2022-12-14T06:54:13.720Z,12.30
2022-12-14T06:56:45.048Z,9.93
2022-12-14T06:59:14.128Z,9.77
2022-12-14T07:01:42.896Z,10.17
2022-12-14T07:04:11.564Z,9.33
2022-12-14T07:06:41.651Z,10.07
2022-12-14T07:09:13.693Z,10.20
2022-12-14T07:11:43.661Z,11.10
2022-12-14T07:14:15.613Z,10.80
2022-12-14T07:16:48.252Z,10.60
2022-12-14T07:19:18.205Z,11.20
2022-12-14T07:21:46.784Z,10.93
2022-12-14T07:24:17.081Z,11.30
2022-12-14T07:26:46.942Z,11.97
2022-12-14T07:29:16.887Z,13.23
2022-12-14T07:31:49.480Z,14.93
2022-12-14T07:34:21.363Z,14.67
2022-12-14T07:36:51.585Z,12.53
2022-12-14T07:39:21.031Z,11.77
2022-12-14T07:41:52.235Z,11.70
2022-12-14T07:44:20.731Z,10.97
2022-12-14T07:46:49.287Z,12.10
2022-12-14T07:49:17.798Z,12.57
2022-12-14T07:51:46.664Z,12.30
2022-12-14T07:54:15.346Z,11.50
2022-12-14T07:56:45.187Z,12.93
2022-12-14T07:59:17.014Z,11.50
2022-12-14T08:01:46.147Z,13.80
2022-12-14T08:04:16.697Z,14.10
2022-12-14T08:06:46.930Z,14.20
2022-12-14T08:09:16.811Z,12.80
2022-12-14T08:11:45.570Z,13.43
2022-12-14T08:14:17.250Z,13.47
2022-12-14T08:16:46.176Z,13.83
2022-12-14T08:19:14.965Z,13.03
2022-12-14T08:21:43.554Z,12.90
2022-12-14T08:24:12.509Z,13.93
2022-12-14T08:26:41.066Z,12.33
2022-12-14T08:29:12.311Z,12.97
2022-12-14T08:31:42.664Z,13.57
2022-12-14T08:34:11.275Z,14.20
2022-12-14T08:36:39.864Z,14.40
2022-12-14T08:39:10.730Z,15.00
2022-12-14T08:41:39.274Z,14.37
2022-12-14T08:44:09.898Z,13.97
2022-12-14T08:46:39.286Z,15.30
2022-12-14T08:49:09.296Z,14.90
2022-12-14T08:51:39.042Z,15.70
2022-12-14T08:54:07.614Z,15.80
2022-12-14T08:56:36.221Z,15.87
2022-12-14T08:59:04.823Z,14.57
2022-12-14T09:01:34.824Z,15.10
2022-12-14T09:04:07.728Z,15.33
2022-12-14T09:06:39.225Z,14.40
2022-12-14T09:09:15.614Z,15.07
2022-12-14T09:11:45.185Z,13.90
2022-12-14T09:14:13.864Z,15.97
2022-12-14T09:16:42.604Z,15.40
2022-12-14T09:19:11.272Z,14.37
2022-12-14T09:21:41.264Z,14.43
2022-12-14T09:24:10.891Z,16.00
2022-12-14T09:26:39.430Z,14.50
2022-12-14T09:29:08.025Z,15.17
2022-12-14T09:31:36.579Z,14.97
2022-12-14T09:34:05.183Z,14.27
2022-12-14T09:36:34.788Z,13.43
2022-12-14T09:39:05.392Z,13.23
2022-12-14T09:41:57.735Z,13.10
2022-12-14T09:44:38.443Z,12.83
2022-12-14T09:47:13.346Z,12.10
2022-12-14T09:49:46.435Z,13.47
2022-12-14T09:52:17.918Z,14.40
2022-12-14T09:54:49.711Z,13.83
2022-12-14T09:57:26.018Z,12.93
2022-12-14T09:59:55.078Z,13.40
2022-12-14T10:02:36.472Z,14.50
2022-12-14T10:05:25.981Z,14.10
2022-12-14T10:08:02.764Z,13.77
2022-12-14T10:10:39.072Z,13.13
2022-12-14T10:13:16.363Z,13.43
2022-12-14T10:15:53.621Z,13.83
2022-12-14T10:19:02.608Z,12.83
2022-12-14T10:21:40.559Z,13.83
2022-12-14T10:24:14.976Z,13.20
2022-12-14T10:26:49.099Z,12.97
2022-12-14T10:29:23.094Z,14.00
2022-12-14T10:31:58.713Z,13.47
2022-12-14T10:34:30.564Z,13.60
2022-12-14T10:37:08.507Z,13.53
2022-12-14T10:39:49.323Z,14.20
2022-12-14T10:42:26.526Z,13.07
2022-12-14T10:45:31.653Z,12.60
2022-12-14T10:47:53.332Z,12.23
2022-12-14T10:50:25.802Z,12.77
2022-12-14T10:52:55.123Z,13.33
2022-12-14T10:55:27.339Z,12.63
2022-12-14T10:57:57.254Z,13.60
2022-12-14T11:00:25.945Z,13.40
2022-12-14T11:02:57.555Z,13.20
2022-12-14T11:05:36.981Z,14.47
2022-12-14T11:08:07.977Z,12.77
2022-12-14T11:10:39.441Z,12.87
2022-12-14T11:13:18.582Z,12.37
2022-12-14T11:15:48.584Z,13.40
2022-12-14T11:18:29.516Z,12.93
2022-12-14T11:20:59.861Z,12.87
2022-12-14T11:23:29.667Z,13.67
2022-12-14T11:25:59.940Z,13.93
2022-12-14T11:28:37.030Z,13.23
2022-12-14T11:31:08.295Z,13.40
2022-12-14T11:33:40.011Z,12.83
2022-12-14T11:36:09.126Z,12.83
2022-12-14T11:38:38.217Z,13.33
2022-12-14T11:41:11.355Z,13.77
2022-12-14T11:43:41.894Z,12.93
2022-12-14T11:46:10.511Z,12.83
2022-12-14T11:48:39.376Z,13.43
2022-12-14T11:51:12.191Z,13.37
2022-12-14T11:53:41.275Z,12.83
2022-12-14T11:56:14.477Z,13.50
2022-12-14T11:58:51.897Z,12.10
2022-12-14T12:01:25.464Z,12.70
2022-12-14T12:03:56.944Z,12.93
2022-12-14T12:06:27.279Z,13.63
2022-12-14T12:08:59.538Z,13.70
2022-12-14T12:11:30.824Z,13.87
2022-12-14T12:14:02.900Z,13.27
2022-12-14T12:16:33.057Z,13.87
2022-12-14T12:19:11.744Z,13.30
2022-12-14T12:21:43.219Z,12.63
2022-12-14T12:24:18.243Z,12.97
2022-12-14T12:26:50.982Z,13.70
2022-12-14T12:29:25.951Z,13.80
2022-12-14T12:31:58.828Z,14.30
2022-12-14T12:34:30.480Z,13.73
2022-12-14T12:37:25.721Z,14.37
2022-12-14T12:39:51.914Z,12.67
2022-12-14T12:42:26.013Z,13.23
2022-12-14T12:44:59.641Z,12.77
2022-12-14T12:47:41.435Z,13.87
2022-12-14T12:50:16.826Z,15.63
2022-12-14T12:52:55.400Z,15.30
2022-12-14T12:55:27.762Z,11.57
2022-12-14T12:57:59.008Z,10.20
2022-12-14T13:00:30.605Z,13.20
2022-12-14T13:03:09.059Z,12.73
2022-12-14T13:05:49.039Z,12.77
2022-12-14T13:08:25.222Z,13.33
2022-12-14T13:11:24.431Z,12.50
2022-12-14T13:13:48.623Z,13.57
2022-12-14T13:16:26.958Z,13.80
2022-12-14T13:21:51.795Z,13.53
2022-12-14T13:24:22.282Z,14.17
2022-12-14T13:27:26.618Z,14.40
2022-12-14T13:30:10.394Z,14.43
2022-12-14T13:32:48.427Z,15.33
2022-12-14T13:35:30.245Z,15.50
2022-12-14T13:38:33.407Z,16.07
2022-12-14T13:41:29.036Z,15.30
2022-12-14T13:44:19.234Z,14.10
2022-12-14T13:46:50.876Z,14.47
2022-12-14T13:49:22.443Z,14.10
2022-12-14T13:51:52.965Z,15.03
2022-12-14T13:54:27.674Z,13.80
2022-12-14T13:57:06.675Z,16.00
2022-12-14T13:59:37.843Z,16.97
2022-12-14T14:02:08.254Z,14.40
2022-12-14T14:04:38.210Z,15.00
2022-12-14T14:07:44.368Z,15.10
2022-12-14T14:10:30.433Z,14.80
2022-12-14T14:12:59.343Z,15.63
2022-12-14T14:16:26.740Z,16.90
2022-12-14T14:18:51.861Z,18.43
2022-12-14T14:21:58.985Z,16.17
2022-12-14T14:24:30.094Z,16.13
2022-12-14T14:27:10.998Z,17.43
2022-12-14T14:29:46.084Z,18.53
2022-12-14T14:32:34.006Z,18.27
2022-12-14T14:35:03.299Z,16.97
2022-12-14T14:37:37.020Z,16.63
2022-12-14T14:40:43.759Z,15.80
2022-12-14T14:43:23.581Z,15.80
2022-12-14T14:45:54.451Z,16.07
2022-12-14T14:48:28.186Z,16.73
2022-12-14T14:51:10.520Z,17.37
2022-12-14T14:53:40.999Z,16.63
2022-12-14T14:56:29.366Z,16.67
2022-12-14T14:59:30.149Z,16.37
2022-12-14T15:02:00.969Z,19.87
2022-12-14T15:04:36.551Z,28.13
2022-12-14T15:07:08.742Z,24.83
2022-12-14T15:09:44.619Z,22.40
2022-12-14T15:12:23.420Z,19.83
2022-12-14T15:14:54.388Z,18.13
2022-12-14T15:17:25.402Z,19.33
2022-12-14T15:19:54.692Z,18.53
2022-12-14T15:22:24.725Z,19.00
2022-12-14T15:24:58.031Z,22.20
2022-12-14T15:27:28.892Z,33.90
2022-12-14T15:30:02.431Z,35.70
2022-12-14T15:32:31.902Z,26.63
2022-12-14T15:35:02.394Z,25.03
2022-12-14T15:37:38.067Z,26.27
2022-12-14T15:40:13.390Z,34.77
2022-12-14T15:42:47.322Z,33.67
2022-12-14T15:45:18.934Z,35.50
2022-12-14T15:47:49.131Z,25.87
2022-12-14T15:50:28.676Z,36.63
2022-12-14T15:53:00.875Z,23.07
2022-12-14T15:55:36.767Z,39.45
2022-12-14T15:58:10.481Z,36.15
2022-12-14T16:00:42.593Z,26.03
2022-12-14T16:03:20.030Z,24.37
2022-12-14T16:05:48.756Z,23.17
2022-12-14T16:08:17.719Z,22.43
2022-12-14T16:10:50.678Z,21.40
2022-12-14T16:13:23.065Z,20.63
2022-12-14T16:15:52.187Z,22.00
2022-12-14T16:18:21.458Z,20.93
2022-12-14T16:20:58.701Z,19.47
2022-12-14T16:23:31.173Z,18.70
2022-12-14T16:26:03.210Z,19.20
2022-12-14T16:28:33.605Z,18.23
2022-12-14T16:31:03.747Z,19.67
2022-12-14T16:33:34.717Z,18.63
2022-12-14T16:36:06.340Z,18.27
2022-12-14T16:38:39.188Z,28.47
2022-12-14T16:41:09.425Z,36.77
2022-12-14T16:43:39.926Z,28.27
2022-12-14T16:46:18.701Z,22.57
2022-12-14T16:49:21.768Z,19.07
2022-12-14T16:52:07.254Z,17.97
2022-12-14T16:54:37.792Z,17.03
2022-12-14T16:57:14.987Z,18.80
2022-12-14T16:59:47.946Z,17.30
2022-12-14T17:02:35.802Z,18.90
2022-12-14T17:05:06.997Z,20.27
2022-12-14T17:07:37.587Z,18.37
2022-12-14T17:10:08.325Z,17.40
2022-12-14T17:12:38.440Z,17.00
2022-12-14T17:15:07.846Z,17.80
2022-12-14T17:17:37.349Z,20.87
2022-12-14T17:20:13.779Z,71.70
2022-12-14T17:22:43.262Z,36.17
2022-12-14T17:25:18.671Z,21.03
2022-12-14T17:27:49.448Z,19.37
2022-12-14T17:30:20.177Z,18.47
2022-12-14T17:32:49.361Z,18.00
2022-12-14T17:35:19.247Z,18.20
2022-12-14T17:37:51.347Z,19.03
2022-12-14T17:40:19.915Z,18.80
2022-12-14T17:42:52.811Z,21.20
2022-12-14T17:45:23.400Z,20.10
2022-12-14T17:47:52.279Z,23.23
2022-12-14T17:50:21.773Z,20.93
2022-12-14T17:52:51.130Z,25.17
2022-12-14T17:55:21.838Z,27.23
2022-12-14T17:57:52.604Z,25.80
2022-12-14T18:00:41.101Z,20.07
2022-12-14T18:03:11.501Z,20.37
2022-12-14T18:05:46.473Z,20.00
2022-12-14T18:08:17.086Z,22.17
2022-12-14T18:10:45.989Z,27.40
2022-12-14T18:13:15.993Z,86.10
2022-12-14T18:15:49.609Z,42.20
2022-12-14T18:18:20.891Z,30.93
2022-12-14T18:20:52.081Z,30.53
2022-12-14T18:23:21.173Z,22.30
2022-12-14T18:25:50.969Z,19.53
2022-12-14T18:28:21.028Z,18.50
2022-12-14T18:30:52.230Z,19.27
2022-12-14T18:33:22.699Z,20.33
2022-12-14T18:35:52.003Z,19.27
2022-12-14T18:38:20.671Z,18.27
2022-12-14T18:40:51.207Z,19.57
2022-12-14T18:43:23.289Z,20.13
2022-12-14T18:45:52.721Z,18.70
2022-12-14T18:48:21.387Z,18.97
2022-12-14T18:50:50.631Z,17.63
2022-12-14T18:53:20.874Z,21.23
2022-12-14T18:55:50.189Z,20.43
2022-12-14T18:58:22.042Z,19.27
2022-12-14T19:00:52.353Z,18.43
2022-12-14T19:03:21.498Z,19.33
2022-12-14T19:05:50.124Z,23.50
2022-12-14T19:08:18.939Z,29.47
2022-12-14T19:10:48.913Z,26.43
2022-12-14T19:13:26.225Z,21.67
2022-12-14T19:15:56.673Z,24.47
2022-12-14T19:18:25.423Z,25.40
2022-12-14T19:20:53.974Z,26.20
2022-12-14T19:23:22.657Z,26.50
2022-12-14T19:25:51.314Z,23.57
2022-12-14T19:28:31.910Z,21.10
2022-12-14T19:31:02.935Z,19.87
2022-12-14T19:33:32.349Z,20.33
2022-12-14T19:36:01.432Z,20.80
2022-12-14T19:38:29.942Z,18.57
2022-12-14T19:41:01.714Z,19.00
2022-12-14T19:43:30.788Z,20.57
2022-12-14T19:46:01.210Z,19.70
2022-12-14T19:48:29.787Z,17.73
2022-12-14T19:50:58.319Z,28.43
2022-12-14T19:53:26.838Z,47.13
2022-12-14T19:55:55.388Z,41.93
2022-12-14T19:58:25.323Z,29.53
2022-12-14T20:00:54.381Z,24.50
2022-12-14T20:03:24.835Z,22.83
2022-12-14T20:05:53.959Z,22.03
2022-12-14T20:08:22.649Z,22.33
2022-12-14T20:10:52.738Z,23.03
2022-12-14T20:13:21.347Z,23.77
2022-12-14T20:15:50.969Z,33.17
2022-12-14T20:18:20.235Z,31.97
2022-12-14T20:20:50.656Z,26.67
2022-12-14T20:23:21.709Z,24.33
2022-12-14T20:25:50.565Z,22.63
2022-12-14T20:28:19.205Z,26.10
2022-12-14T20:30:48.973Z,23.50
2022-12-14T20:33:17.850Z,21.93
2022-12-14T20:35:46.482Z,22.57
2022-12-14T20:38:17.152Z,24.37
2022-12-14T20:40:45.931Z,23.60
2022-12-14T20:43:14.606Z,26.07
2022-12-14T20:45:45.125Z,35.17
2022-12-14T20:48:13.997Z,26.67
2022-12-14T20:50:44.316Z,34.90
2022-12-14T20:53:21.428Z,35.03
2022-12-14T20:55:50.005Z,26.40
2022-12-14T20:58:18.822Z,22.83
2022-12-14T21:00:47.462Z,25.33
2022-12-14T21:03:16.281Z,25.50
2022-12-14T21:05:45.194Z,25.97
2022-12-14T21:08:15.556Z,28.03
2022-12-14T21:10:45.470Z,26.53
2022-12-14T21:13:13.079Z,27.20
2022-12-14T21:15:42.413Z,25.40
2022-12-14T21:18:10.935Z,26.43
2022-12-14T21:20:39.659Z,25.13
2022-12-14T21:23:08.182Z,25.33
2022-12-14T21:25:36.707Z,25.20
2022-12-14T21:28:06.645Z,24.67
2022-12-14T21:30:35.404Z,24.07
2022-12-14T21:33:04.361Z,24.90
2022-12-14T21:35:32.881Z,24.13
2022-12-14T21:38:01.643Z,26.07
2022-12-14T21:40:47.353Z,24.57
2022-12-14T21:43:17.259Z,25.13
2022-12-14T21:45:46.256Z,28.97
2022-12-14T21:48:14.937Z,26.30
2022-12-14T21:50:45.345Z,25.07
2022-12-14T21:53:13.843Z,23.40
2022-12-14T21:55:49.997Z,21.37
2022-12-14T21:58:19.015Z,21.80
2022-12-14T22:00:47.564Z,21.00
2022-12-14T22:03:16.195Z,21.93
2022-12-14T22:05:44.693Z,23.10
2022-12-14T22:08:13.184Z,23.40
2022-12-14T22:10:41.720Z,24.63
2022-12-14T22:13:10.265Z,22.73
2022-12-14T22:15:40.160Z,22.97
2022-12-14T22:18:08.640Z,23.63
2022-12-14T22:20:37.167Z,22.17
2022-12-14T22:23:05.821Z,23.83
2022-12-14T22:25:34.409Z,23.40
2022-12-14T22:28:02.926Z,22.50
2022-12-14T22:30:32.125Z,22.17
2022-12-14T22:33:02.052Z,21.57
2022-12-14T22:35:30.571Z,11.70
2022-12-14T22:38:32.459Z,14.30
2022-12-14T22:49:41.984Z,17.13
2022-12-14T22:52:11.588Z,17.30
2022-12-14T22:54:41.123Z,17.70
2022-12-14T22:57:11.555Z,18.63
2022-12-14T22:59:43.793Z,19.50
2022-12-14T23:02:12.718Z,19.20
2022-12-14T23:04:42.881Z,20.40
2022-12-14T23:07:11.721Z,20.23
2022-12-14T23:09:57.894Z,19.70
2022-12-14T23:12:43.919Z,19.53
2022-12-14T23:15:29.698Z,19.07
2022-12-14T23:18:19.524Z,20.00
2022-12-14T23:21:06.955Z,18.27
2022-12-14T23:23:55.695Z,18.57
2022-12-14T23:26:41.553Z,18.60
2022-12-14T23:29:27.261Z,19.30
2022-12-14T23:32:13.667Z,19.33
2022-12-14T23:34:59.812Z,19.10
2022-12-14T23:37:47.244Z,17.60
2022-12-14T23:40:33.433Z,17.50
2022-12-14T23:43:26.376Z,18.50
2022-12-14T23:46:12.665Z,18.00
2022-12-14T23:48:58.508Z,18.43
2022-12-14T23:51:44.274Z,18.23
2022-12-14T23:54:32.021Z,17.20
2022-12-14T23:57:17.965Z,18.13
